Welcome to the New NWS' Forecast!
Most changes are behind the scenes, but click here for differences you might notice.

Terminal Aerodrome Forecast (TAF)

Issued by National Weather Service (NWS)

                            
000
FTUS42 KMFL 221743
TAFMIA
TAF
KMIA 221743Z 2218/2324 09012KT P6SM VCSH SCT025 BKN040 BKN250
     FM230000 06006KT P6SM FEW030 SCT050
     FM231200 09008KT P6SM SCT035 SCT100 PROB30 2312/2318 6SM SHRA
      BKN025=